createdAt,value
2019-04-06T00:02:26.447Z,38.70
2019-04-06T00:04:55.165Z,38.80
2019-04-06T00:07:23.798Z,38.80
2019-04-06T00:09:53.025Z,38.80
2019-04-06T00:12:21.874Z,38.80
2019-04-06T00:14:50.595Z,38.80
2019-04-06T00:17:19.187Z,38.80
2019-04-06T00:19:47.845Z,38.70
2019-04-06T00:22:16.402Z,38.70
2019-04-06T00:24:45.183Z,38.70
2019-04-06T00:27:13.741Z,38.60
2019-04-06T00:29:42.603Z,38.60
2019-04-06T00:32:16.003Z,38.70
2019-04-06T00:34:44.958Z,38.70
2019-04-06T00:37:13.709Z,38.60
2019-04-06T00:39:42.381Z,38.70
2019-04-06T00:42:11.125Z,38.70
2019-04-06T00:44:39.750Z,38.60
2019-04-06T00:47:08.273Z,38.50
2019-04-06T00:49:37.001Z,38.50
2019-04-06T00:52:05.920Z,38.60
2019-04-06T00:54:35.004Z,38.60
2019-04-06T00:57:03.837Z,38.50
2019-04-06T00:59:32.968Z,38.40
2019-04-06T01:02:01.652Z,38.40
2019-04-06T01:04:30.280Z,38.50
2019-04-06T01:06:59.121Z,38.50
2019-04-06T01:09:27.799Z,38.60
2019-04-06T01:11:56.397Z,38.70
2019-04-06T01:14:25.171Z,38.70
2019-04-06T01:16:54.053Z,38.70
2019-04-06T01:19:22.696Z,38.70
2019-04-06T01:21:51.316Z,38.70
2019-04-06T01:24:20.237Z,38.70
2019-04-06T01:26:48.890Z,38.60
2019-04-06T01:29:17.449Z,38.60
2019-04-06T01:31:46.207Z,38.50
2019-04-06T01:34:15.087Z,38.50
2019-04-06T01:36:44.023Z,38.50
2019-04-06T01:39:12.635Z,38.60
2019-04-06T01:41:41.246Z,38.60
2019-04-06T01:44:09.776Z,38.60
2019-04-06T01:46:38.360Z,38.50
2019-04-06T01:49:06.964Z,38.90
2019-04-06T01:51:35.502Z,38.50
2019-04-06T01:54:04.241Z,38.40
2019-04-06T01:56:32.839Z,38.50
2019-04-06T01:59:01.557Z,38.50
2019-04-06T02:01:34.871Z,38.50
2019-04-06T02:04:04.001Z,38.40
2019-04-06T02:06:32.509Z,38.40
2019-04-06T02:09:01.123Z,38.40
2019-04-06T02:11:30.084Z,38.40
2019-04-06T02:13:59.182Z,38.40
2019-04-06T02:16:27.740Z,38.30
2019-04-06T02:18:56.478Z,38.20
2019-04-06T02:21:24.997Z,38.20
2019-04-06T02:23:53.874Z,38.20
2019-04-06T02:26:30.169Z,38.10
2019-04-06T02:28:52.837Z,38.20
2019-04-06T02:31:39.422Z,38.10
2019-04-06T02:34:12.753Z,38.10
2019-04-06T02:37:00.315Z,38.20
2019-04-06T02:39:36.774Z,38.30
2019-04-06T02:42:10.082Z,38.30
2019-04-06T02:44:38.741Z,38.30
2019-04-06T02:47:07.369Z,38.20
2019-04-06T02:49:36.177Z,38.20
2019-04-06T02:52:05.189Z,38.10
2019-04-06T02:54:33.768Z,38.10
2019-04-06T02:57:02.635Z,38.10
2019-04-06T02:59:31.276Z,38.00
2019-04-06T03:02:00.013Z,37.90
2019-04-06T03:04:28.752Z,37.30
2019-04-06T03:06:57.234Z,37.60
2019-04-06T03:09:25.852Z,37.60
2019-04-06T03:11:54.677Z,37.60
2019-04-06T03:14:23.403Z,37.70
2019-04-06T03:16:51.991Z,37.70
2019-04-06T03:19:20.882Z,37.80
2019-04-06T03:21:49.914Z,37.80
2019-04-06T03:24:18.554Z,37.80
2019-04-06T03:26:59.814Z,37.90
2019-04-06T03:29:17.756Z,37.80
2019-04-06T03:31:46.491Z,37.70
2019-04-06T03:34:20.677Z,37.90
2019-04-06T03:36:45.723Z,37.70
2019-04-06T03:39:14.373Z,38.10
2019-04-06T03:41:43.313Z,37.70
2019-04-06T03:44:11.934Z,37.60
2019-04-06T03:46:40.504Z,37.60
2019-04-06T03:49:09.219Z,37.60
2019-04-06T03:51:37.667Z,37.60
2019-04-06T03:54:06.424Z,37.60
2019-04-06T03:56:35.104Z,37.60
2019-04-06T03:59:03.768Z,37.50
2019-04-06T04:01:32.513Z,37.50
2019-04-06T04:04:01.197Z,37.50
2019-04-06T04:06:29.779Z,37.90
2019-04-06T04:08:58.611Z,37.50
2019-04-06T04:11:27.426Z,37.50
2019-04-06T04:13:56.268Z,37.50
2019-04-06T04:16:25.154Z,37.60
2019-04-06T04:18:53.759Z,38.00
2019-04-06T04:21:22.365Z,37.60
2019-04-06T04:23:50.883Z,37.70
2019-04-06T04:26:19.920Z,37.60
2019-04-06T04:28:48.459Z,37.60
2019-04-06T04:31:17.598Z,37.60
2019-04-06T04:33:46.328Z,37.60
2019-04-06T04:36:15.551Z,37.50
2019-04-06T04:38:44.342Z,37.50
2019-04-06T04:41:13.088Z,37.90
2019-04-06T04:43:41.755Z,37.40
2019-04-06T04:46:10.236Z,37.50
2019-04-06T04:48:38.905Z,37.40
2019-04-06T04:51:07.593Z,37.40
2019-04-06T04:53:36.328Z,37.30
2019-04-06T04:56:05.035Z,37.40
2019-04-06T04:58:33.803Z,37.40
2019-04-06T05:01:02.581Z,37.40
2019-04-06T05:03:31.182Z,37.40
2019-04-06T05:06:00.255Z,37.40
2019-04-06T05:08:29.246Z,37.40
2019-04-06T05:10:57.921Z,37.40
2019-04-06T05:13:26.659Z,37.30
2019-04-06T05:16:12.386Z,37.40
2019-04-06T05:18:41.942Z,37.30
2019-04-06T05:21:12.154Z,37.20
2019-04-06T05:23:41.031Z,37.20
2019-04-06T05:26:09.911Z,37.10
2019-04-06T05:28:38.639Z,37.20
2019-04-06T05:31:07.515Z,37.20
2019-04-06T05:33:36.302Z,37.30
2019-04-06T05:36:05.305Z,37.30
2019-04-06T05:38:33.963Z,37.30
2019-04-06T05:41:02.464Z,37.40
2019-04-06T05:43:31.886Z,37.50
2019-04-06T05:46:00.803Z,38.00
2019-04-06T05:48:29.925Z,37.80
2019-04-06T05:50:58.875Z,37.70
2019-04-06T05:53:27.470Z,37.80
2019-04-06T05:55:56.227Z,37.70
2019-04-06T05:58:25.043Z,37.80
2019-04-06T06:00:53.864Z,37.80
2019-04-06T06:03:22.833Z,38.00
2019-04-06T06:05:51.308Z,38.10
2019-04-06T06:08:19.937Z,38.20
2019-04-06T06:10:48.820Z,38.20
2019-04-06T06:13:17.286Z,38.30
2019-04-06T06:15:46.275Z,38.30
2019-04-06T06:18:25.870Z,38.40
2019-04-06T06:20:47.285Z,38.30
2019-04-06T06:23:16.382Z,38.30
2019-04-06T06:25:45.169Z,38.20
2019-04-06T06:28:15.459Z,38.20
2019-04-06T06:30:44.366Z,38.20
2019-04-06T06:33:13.031Z,38.60
2019-04-06T06:35:42.065Z,38.10
2019-04-06T06:38:10.969Z,37.90
2019-04-06T06:40:39.821Z,37.80
2019-04-06T06:43:08.572Z,37.80
2019-04-06T06:45:37.343Z,37.70
2019-04-06T06:48:06.019Z,37.70
2019-04-06T06:50:34.848Z,37.60
2019-04-06T06:53:03.683Z,37.50
2019-04-06T06:55:32.560Z,37.60
2019-04-06T06:58:01.260Z,37.50
2019-04-06T07:00:29.828Z,37.60
2019-04-06T07:02:58.525Z,37.60
2019-04-06T07:05:27.946Z,37.70
2019-04-06T07:07:56.608Z,37.80
2019-04-06T07:10:25.104Z,37.90
2019-04-06T07:12:53.706Z,37.90
2019-04-06T07:15:22.267Z,37.90
2019-04-06T07:17:51.378Z,37.90
2019-04-06T07:20:20.173Z,37.90
2019-04-06T07:22:49.003Z,38.00
2019-04-06T07:25:18.155Z,38.40
2019-04-06T07:27:46.862Z,38.00
2019-04-06T07:30:16.048Z,38.10
2019-04-06T07:32:45.211Z,38.10
2019-04-06T07:35:14.312Z,38.10
2019-04-06T07:37:42.970Z,38.10
2019-04-06T07:40:11.676Z,38.10
2019-04-06T07:42:40.380Z,38.00
2019-04-06T07:45:09.427Z,38.00
2019-04-06T07:47:38.864Z,38.00
2019-04-06T07:50:08.373Z,38.00
2019-04-06T07:52:37.134Z,37.90
2019-04-06T07:55:07.130Z,37.80
2019-04-06T07:57:35.946Z,37.80
2019-04-06T08:00:07.055Z,37.80
2019-04-06T08:02:35.963Z,37.80
2019-04-06T08:05:06.530Z,37.80
2019-04-06T08:07:35.584Z,37.70
2019-04-06T08:10:05.340Z,37.60
2019-04-06T08:12:34.010Z,37.60
2019-04-06T08:15:02.514Z,37.50
2019-04-06T08:29:16.360Z,37.30
2019-04-06T08:31:35.717Z,37.40
2019-04-06T08:34:04.442Z,37.40
2019-04-06T08:36:32.968Z,37.60
2019-04-06T08:39:01.744Z,37.80
2019-04-06T08:41:30.204Z,37.70
2019-04-06T08:43:59.141Z,37.60
2019-04-06T08:46:27.959Z,37.40
2019-04-06T08:48:56.676Z,36.30
2019-04-06T08:51:25.706Z,35.90
2019-04-06T08:53:54.260Z,35.80
2019-04-06T08:56:23.085Z,35.30
2019-04-06T08:58:51.942Z,35.00
2019-04-06T09:01:21.258Z,35.00
2019-04-06T09:03:50.028Z,34.90
2019-04-06T09:06:18.830Z,34.60
2019-04-06T09:08:47.566Z,34.30
2019-04-06T09:11:16.301Z,34.30
2019-04-06T09:13:45.057Z,34.50
2019-04-06T09:16:13.720Z,34.40
2019-04-06T09:18:42.685Z,34.20
2019-04-06T09:21:11.580Z,34.10
2019-04-06T09:23:40.281Z,34.30
2019-04-06T09:26:08.966Z,34.20
2019-04-06T09:28:37.646Z,34.20
2019-04-06T09:33:51.285Z,33.90
2019-04-06T09:36:19.873Z,33.80
2019-04-06T09:38:48.363Z,33.90
2019-04-06T09:41:17.053Z,33.80
2019-04-06T09:43:45.791Z,33.70
2019-04-06T09:46:25.044Z,33.40
2019-04-06T09:49:01.479Z,33.40
2019-04-06T09:51:32.331Z,33.40
2019-04-06T09:54:07.153Z,33.20
2019-04-06T09:56:46.014Z,32.90
2019-04-06T09:59:36.029Z,33.00
2019-04-06T10:02:11.735Z,32.90
2019-04-06T10:04:41.916Z,32.90
2019-04-06T10:07:28.373Z,32.70
2019-04-06T10:10:15.260Z,32.90
2019-04-06T10:12:48.141Z,32.70
2019-04-06T10:15:27.405Z,32.80
2019-04-06T10:18:03.317Z,32.90
2019-04-06T10:20:33.636Z,32.80
2019-04-06T10:23:06.654Z,32.60
2019-04-06T10:25:43.199Z,32.50
2019-04-06T10:28:16.234Z,32.00
2019-04-06T10:30:53.712Z,32.00
2019-04-06T10:33:40.618Z,32.00
2019-04-06T10:36:22.779Z,32.10
2019-04-06T10:39:11.399Z,32.10
2019-04-06T10:41:47.650Z,32.10
2019-04-06T10:44:17.802Z,31.90
2019-04-06T10:46:47.906Z,32.00
2019-04-06T10:49:18.592Z,32.10
2019-04-06T10:51:51.594Z,32.10
2019-04-06T10:54:24.421Z,31.70
2019-04-06T10:56:57.398Z,31.40
2019-04-06T10:59:27.517Z,31.20
2019-04-06T11:02:06.898Z,30.90
2019-04-06T11:04:39.635Z,30.90
2019-04-06T11:07:27.506Z,30.80
2019-04-06T11:10:09.585Z,30.50
2019-04-06T11:12:39.838Z,30.50
2019-04-06T11:15:26.315Z,30.10
2019-04-06T11:17:56.480Z,30.30
2019-04-06T11:20:32.563Z,30.50
2019-04-06T11:23:11.453Z,30.40
2019-04-06T11:25:54.176Z,30.50
2019-04-06T11:28:26.823Z,30.10
2019-04-06T11:31:12.528Z,30.10
2019-04-06T11:33:48.909Z,30.10
2019-04-06T11:36:31.357Z,29.80
2019-04-06T11:39:01.690Z,29.90
2019-04-06T11:41:49.874Z,29.80
2019-04-06T11:44:26.213Z,29.70
2019-04-06T11:47:12.508Z,29.60
2019-04-06T11:49:59.304Z,29.50
2019-04-06T11:52:29.755Z,29.40
2019-04-06T11:55:02.776Z,29.30
2019-04-06T11:57:38.788Z,29.30
2019-04-06T12:00:27.537Z,29.40
2019-04-06T12:03:00.267Z,29.10
2019-04-06T12:05:32.936Z,29.10
2019-04-06T12:08:21.763Z,29.30
2019-04-06T12:10:54.405Z,29.10
2019-04-06T12:13:33.450Z,29.20
2019-04-06T12:16:03.863Z,29.00
2019-04-06T12:18:37.203Z,28.90
2019-04-06T12:21:07.582Z,28.80
2019-04-06T12:23:54.573Z,28.80
2019-04-06T12:26:33.640Z,28.70
2019-04-06T12:29:07.444Z,28.70
2019-04-06T12:31:37.970Z,28.70
2019-04-06T12:34:24.627Z,28.80
2019-04-06T12:36:55.333Z,28.90
2019-04-06T12:39:25.450Z,28.90
2019-04-06T12:41:55.607Z,28.90
2019-04-06T12:44:37.752Z,28.50
2019-04-06T12:47:26.342Z,28.40
2019-04-06T12:49:59.249Z,28.40
2019-04-06T12:52:46.107Z,28.80
2019-04-06T12:55:16.233Z,28.40
2019-04-06T12:57:58.008Z,28.30
2019-04-06T13:00:28.409Z,28.20
2019-04-06T13:03:07.241Z,28.20
2019-04-06T13:05:37.746Z,28.10
2019-04-06T13:08:11.244Z,28.00
2019-04-06T13:10:41.508Z,27.90
2019-04-06T13:13:11.670Z,27.90
2019-04-06T13:15:47.665Z,27.60
2019-04-06T13:18:26.664Z,27.60
2019-04-06T13:21:02.677Z,27.70
2019-04-06T13:23:41.949Z,27.80
2019-04-06T13:26:27.679Z,27.70
2019-04-06T13:28:57.986Z,27.70
2019-04-06T13:31:40.494Z,27.80
2019-04-06T13:34:16.353Z,27.90
2019-04-06T13:37:04.875Z,27.80
2019-04-06T13:39:37.927Z,28.10
2019-04-06T13:42:08.099Z,28.00
2019-04-06T13:44:43.992Z,27.90
2019-04-06T13:47:20.041Z,28.00
2019-04-06T13:49:50.230Z,28.10
2019-04-06T13:52:36.605Z,28.10
2019-04-06T13:55:17.519Z,28.00
2019-04-06T13:57:47.662Z,28.10
2019-04-06T14:00:20.993Z,28.20
2019-04-06T14:02:56.927Z,28.20
2019-04-06T14:05:38.859Z,28.30
2019-04-06T14:08:11.778Z,28.40
2019-04-06T14:10:47.930Z,28.40
2019-04-06T14:13:18.099Z,28.40
2019-04-06T14:15:48.306Z,28.40
2019-04-06T14:18:34.859Z,28.50
2019-04-06T14:21:04.986Z,28.40
2019-04-06T14:23:38.296Z,28.20
2019-04-06T14:26:08.845Z,28.20
2019-04-06T14:28:39.052Z,28.20
2019-04-06T14:31:09.230Z,28.10
2019-04-06T14:33:48.366Z,27.90
2019-04-06T14:36:35.240Z,27.70
2019-04-06T14:39:21.946Z,27.20
2019-04-06T14:42:04.967Z,27.10
2019-04-06T14:44:35.317Z,26.60
2019-04-06T14:47:17.620Z,26.80
2019-04-06T14:49:57.439Z,26.70
2019-04-06T14:52:39.559Z,26.70
2019-04-06T14:55:28.141Z,26.60
2019-04-06T14:58:01.917Z,26.50
2019-04-06T15:00:48.618Z,26.10
2019-04-06T15:03:22.390Z,26.10
2019-04-06T15:08:46.801Z,26.20
2019-04-06T15:11:33.064Z,26.10
2019-04-06T15:14:03.259Z,26.30
2019-04-06T15:16:33.802Z,25.60
2019-04-06T15:19:12.905Z,25.20
2019-04-06T15:21:54.929Z,24.70
2019-04-06T15:24:34.097Z,24.50
2019-04-06T15:27:12.967Z,24.40
2019-04-06T15:29:45.496Z,24.00
2019-04-06T15:32:24.565Z,23.80
2019-04-06T15:34:57.775Z,23.60
2019-04-06T15:37:28.074Z,23.00
2019-04-06T15:39:58.580Z,22.40
2019-04-06T15:42:28.981Z,21.90
2019-04-06T15:44:59.165Z,21.20
2019-04-06T15:47:41.967Z,21.20
2019-04-06T15:50:18.135Z,21.30
2019-04-06T15:53:05.144Z,21.50
2019-04-06T15:55:51.505Z,21.60
2019-04-06T15:58:21.723Z,21.30
2019-04-06T16:00:52.224Z,20.80
2019-04-06T16:03:39.428Z,20.80
2019-04-06T16:06:09.757Z,20.90
2019-04-06T16:08:52.002Z,20.90
2019-04-06T16:11:40.596Z,20.80
2019-04-06T16:14:13.616Z,20.60
2019-04-06T16:16:43.898Z,20.50
2019-04-06T16:19:26.278Z,20.60
2019-04-06T16:21:56.561Z,20.60
2019-04-06T16:24:26.662Z,20.50
2019-04-06T16:27:13.992Z,20.60
2019-04-06T16:29:47.110Z,21.20
2019-04-06T16:32:34.315Z,20.70
2019-04-06T16:35:20.355Z,20.90
2019-04-06T16:37:56.992Z,20.50
2019-04-06T16:40:36.344Z,20.70
2019-04-06T16:43:12.060Z,20.80
2019-04-06T16:45:42.360Z,20.70
2019-04-06T16:48:18.564Z,20.60
2019-04-06T16:51:05.331Z,20.60
2019-04-06T16:53:41.340Z,20.80
2019-04-06T16:56:27.916Z,20.80
2019-04-06T16:58:58.040Z,21.00
2019-04-06T17:01:30.933Z,21.00
2019-04-06T17:04:01.635Z,21.10
2019-04-06T17:06:43.930Z,21.20
2019-04-06T17:09:23.741Z,21.30
2019-04-06T17:12:03.279Z,21.30
2019-04-06T17:14:39.603Z,21.40
2019-04-06T17:17:18.764Z,21.30
2019-04-06T17:20:05.043Z,21.50
2019-04-06T17:22:51.705Z,21.80
2019-04-06T17:25:38.272Z,22.20
2019-04-06T17:28:20.513Z,22.60
2019-04-06T17:30:53.113Z,22.80
2019-04-06T17:33:29.438Z,23.40
2019-04-06T17:36:08.804Z,23.50
2019-04-06T17:38:47.847Z,23.70
2019-04-06T17:41:30.187Z,23.80
2019-04-06T17:44:17.558Z,24.00
2019-04-06T17:46:56.575Z,24.40
2019-04-06T17:49:30.017Z,24.50
2019-04-06T17:52:00.176Z,24.90
2019-04-06T17:54:39.416Z,25.10
2019-04-06T17:57:27.793Z,25.30
2019-04-06T18:00:14.291Z,25.40
2019-04-06T18:02:59.723Z,25.50
2019-04-06T18:05:42.668Z,25.70
2019-04-06T18:08:15.746Z,25.80
2019-04-06T18:10:55.041Z,25.90
2019-04-06T18:13:25.301Z,26.20
2019-04-06T18:15:54.190Z,26.30
2019-04-06T18:18:22.720Z,26.30
2019-04-06T18:20:51.197Z,26.50
2019-04-06T18:23:20.030Z,26.40
2019-04-06T18:25:49.086Z,26.40
2019-04-06T18:28:18.179Z,26.70
2019-04-06T18:30:48.729Z,26.80
2019-04-06T18:33:19.379Z,26.80
2019-04-06T18:35:48.568Z,27.10
2019-04-06T18:38:18.826Z,27.10
2019-04-06T18:40:47.496Z,27.10
2019-04-06T18:43:15.948Z,27.30
2019-04-06T18:45:44.591Z,27.20
2019-04-06T18:48:13.331Z,27.30
2019-04-06T18:50:42.239Z,27.50
2019-04-06T18:53:10.673Z,27.40
2019-04-06T18:55:39.180Z,27.50
2019-04-06T18:58:12.431Z,27.50
2019-04-06T19:00:38.264Z,27.50
2019-04-06T19:03:14.096Z,27.70
2019-04-06T19:05:37.208Z,27.60
2019-04-06T19:08:05.768Z,27.70
2019-04-06T19:10:34.993Z,27.70
2019-04-06T19:13:03.448Z,27.70
2019-04-06T19:15:32.499Z,27.80
2019-04-06T19:18:01.331Z,27.80
2019-04-06T19:20:30.430Z,27.80
2019-04-06T19:22:59.030Z,27.90
2019-04-06T19:25:28.328Z,27.90
2019-04-06T19:27:57.232Z,27.90
2019-04-06T19:30:26.246Z,28.00
2019-04-06T19:32:55.227Z,28.00
2019-04-06T19:35:24.611Z,28.10
2019-04-06T19:37:53.311Z,28.10
2019-04-06T19:40:21.885Z,28.10
2019-04-06T19:42:50.480Z,28.30
2019-04-06T19:45:19.574Z,28.20
2019-04-06T19:47:48.403Z,28.40
2019-04-06T19:50:17.633Z,28.50
2019-04-06T19:52:46.953Z,28.80
2019-04-06T19:55:15.587Z,28.60
2019-04-06T19:57:44.120Z,28.80
2019-04-06T20:00:13.136Z,28.80
2019-04-06T20:02:41.972Z,28.90
2019-04-06T20:05:10.998Z,28.90
2019-04-06T20:07:39.914Z,28.90
2019-04-06T20:10:08.987Z,29.00
2019-04-06T20:12:37.657Z,29.20
2019-04-06T20:15:07.646Z,29.10
2019-04-06T20:17:36.557Z,28.90
2019-04-06T20:20:06.775Z,29.10
2019-04-06T20:22:35.394Z,29.10
2019-04-06T20:25:08.275Z,29.30
2019-04-06T20:27:44.790Z,29.30
2019-04-06T20:30:13.932Z,29.20
2019-04-06T20:32:42.400Z,29.20
2019-04-06T20:35:11.302Z,29.20
2019-04-06T20:37:39.802Z,29.30
2019-04-06T20:40:10.222Z,29.30
2019-04-06T20:42:39.457Z,29.40
2019-04-06T20:45:09.214Z,29.50
2019-04-06T20:47:38.549Z,29.60
2019-04-06T20:50:08.243Z,29.60
2019-04-06T20:52:37.102Z,29.70
2019-04-06T20:55:07.085Z,29.80
2019-04-06T20:57:36.299Z,29.90
2019-04-06T21:00:08.678Z,29.80
2019-04-06T21:02:37.645Z,29.90
2019-04-06T21:05:07.855Z,29.90
2019-04-06T21:07:36.990Z,30.00
2019-04-06T21:10:08.697Z,30.00
2019-04-06T21:12:37.362Z,30.00
2019-04-06T21:15:16.880Z,30.10
2019-04-06T21:17:38.676Z,30.20
2019-04-06T21:20:08.053Z,30.30
2019-04-06T21:22:36.648Z,30.30
2019-04-06T21:25:07.094Z,30.30
2019-04-06T21:27:36.243Z,30.30
2019-04-06T21:30:09.197Z,30.30
2019-04-06T21:32:38.152Z,30.60
2019-04-06T21:35:08.468Z,30.70
2019-04-06T21:37:37.006Z,30.70
2019-04-06T21:40:06.634Z,30.60
2019-04-06T21:42:35.484Z,30.70
2019-04-06T21:45:06.322Z,30.60
2019-04-06T21:47:35.356Z,30.60
2019-04-06T21:50:08.740Z,31.00
2019-04-06T21:52:37.310Z,30.60
2019-04-06T21:55:08.376Z,30.20
2019-04-06T21:57:37.651Z,30.90
2019-04-06T22:00:09.412Z,30.60
2019-04-06T22:02:39.211Z,30.80
2019-04-06T22:05:09.380Z,30.70
2019-04-06T22:07:47.218Z,30.60
2019-04-06T22:10:08.487Z,30.60
2019-04-06T22:12:36.975Z,30.60
2019-04-06T22:15:07.492Z,30.70
2019-04-06T22:17:36.185Z,31.10
2019-04-06T22:20:05.965Z,31.00
2019-04-06T22:22:35.350Z,30.70
2019-04-06T22:25:05.792Z,30.80
2019-04-06T22:27:34.582Z,30.80
2019-04-06T22:30:06.867Z,30.70
2019-04-06T22:32:35.655Z,30.80
2019-04-06T22:35:07.608Z,31.00
2019-04-06T22:37:37.053Z,31.00
2019-04-06T22:40:06.506Z,31.00
2019-04-06T22:42:35.295Z,31.10
2019-04-06T22:45:07.280Z,31.00
2019-04-06T22:47:35.944Z,31.10
2019-04-06T22:50:07.031Z,31.10
2019-04-06T22:52:35.834Z,31.00
2019-04-06T22:55:07.409Z,31.10
2019-04-06T22:57:36.157Z,31.10
2019-04-06T23:00:08.438Z,31.10
2019-04-06T23:02:47.852Z,31.30
2019-04-06T23:05:27.870Z,31.20
2019-04-06T23:07:56.959Z,31.20
2019-04-06T23:10:25.946Z,31.20
2019-04-06T23:12:55.311Z,31.20
2019-04-06T23:15:24.542Z,31.20
2019-04-06T23:17:53.230Z,31.20
2019-04-06T23:20:21.857Z,31.20
2019-04-06T23:22:50.639Z,31.20
2019-04-06T23:25:19.131Z,31.30
2019-04-06T23:28:33.069Z,31.30
2019-04-06T23:31:53.162Z,31.30
2019-04-06T23:33:31.529Z,31.20
2019-04-06T23:36:00.153Z,31.20
2019-04-06T23:38:29.306Z,31.30
2019-04-06T23:40:57.889Z,31.30
2019-04-06T23:43:26.776Z,31.30
2019-04-06T23:45:55.483Z,31.40
2019-04-06T23:48:24.028Z,31.40
2019-04-06T23:50:52.509Z,31.30
2019-04-06T23:53:20.997Z,31.30
2019-04-06T23:55:49.541Z,31.30
2019-04-06T23:58:18.052Z,31.30
